Time;durP1;ratioP1;P1;durP2;ratioP2;P2;SDS_P1;SDS_P2;PMS_P1;PMS_P2;Temp;Humidity;BMP_temperature;BMP_pressure;BME280_temperature;BME280_humidity;BME280_pressure;Samples;Min_cycle;Max_cycle;Signal;HPM_P1;HPM_P2
2022/08/15 00:00:37;;;;;;;;;;;24.80;95.00;;;;;;5029350;28;19929;-71
2022/08/15 00:03:05;;;;;;;;;;;24.80;95.10;;;;;;5026296;28;19928;-71
2022/08/15 00:05:33;;;;;;;;;;;24.80;95.30;;;;;;5027061;28;19925;-71
2022/08/15 00:08:00;;;;;;;;;;;24.80;95.40;;;;;;5029527;28;20393;-71
2022/08/15 00:10:28;;;;;;;;;;;24.80;95.50;;;;;;5017356;28;19925;-71
2022/08/15 00:12:59;;;;;;;;;;;24.80;95.60;;;;;;5030917;28;19929;-71
2022/08/15 00:15:25;;;;;;;;;;;24.80;95.90;;;;;;5028033;28;19968;-71
2022/08/15 00:17:53;;;;;;;;;;;24.80;96.00;;;;;;5031050;28;19925;-69
2022/08/15 00:20:20;;;;;;;;;;;24.70;96.00;;;;;;5026320;28;19964;-71
2022/08/15 00:22:48;;;;;;;;;;;24.70;96.20;;;;;;5027615;28;19931;-71
2022/08/15 00:25:16;;;;;;;;;;;24.70;96.50;;;;;;5020443;28;19925;-71
2022/08/15 00:27:44;;;;;;;;;;;24.70;96.70;;;;;;5027581;28;19986;-70
2022/08/15 00:30:13;;;;;;;;;;;24.70;97.10;;;;;;5029870;28;19925;-70
2022/08/15 00:32:39;;;;;;;;;;;24.70;97.40;;;;;;5029094;28;19924;-70
2022/08/15 00:35:35;;;;;;;;;;;24.70;97.70;;;;;;5024491;28;19943;-71
2022/08/15 00:37:55;;;;;;;;;;;24.70;98.10;;;;;;5032876;28;19929;-71
2022/08/15 00:40:23;;;;;;;;;;;24.60;98.30;;;;;;5023508;28;20408;-71
2022/08/15 00:42:52;;;;;;;;;;;24.60;98.50;;;;;;5024155;28;19931;-71
2022/08/15 00:45:20;;;;;;;;;;;24.60;98.90;;;;;;5025852;28;20300;-71
2022/08/15 00:48:41;;;;;;;;;;;24.60;99.10;;;;;;5027321;28;20033;-71
2022/08/15 00:50:34;;;;;;;;;;;24.50;99.20;;;;;;5024679;28;20495;-71
2022/08/15 00:53:02;;;;;;;;;;;24.50;99.50;;;;;;5023827;28;20389;-71
2022/08/15 00:55:30;;;;;;;;;;;24.50;99.60;;;;;;5026880;28;19975;-71
2022/08/15 00:58:00;;;;;;;;;;;24.50;99.80;;;;;;5028537;28;20299;-71
2022/08/15 01:00:30;;;;;;;;;;;24.50;99.90;;;;;;5019874;28;19972;-71
2022/08/15 01:02:59;;;;;;;;;;;24.50;99.90;;;;;;5024869;28;20335;-71
2022/08/15 01:05:25;;;;;;;;;;;24.50;99.90;;;;;;5023241;28;20290;-71
2022/08/15 01:07:52;;;;;;;;;;;24.40;99.90;;;;;;5028567;28;19932;-71
2022/08/15 01:10:20;;;;;;;;;;;24.30;99.90;;;;;;5024616;28;19925;-71
2022/08/15 01:12:47;;;;;;;;;;;24.30;99.90;;;;;;5024488;28;19925;-71
2022/08/15 01:15:16;;;;;;;;;;;24.30;99.90;;;;;;5025089;28;19932;-71
2022/08/15 01:17:44;;;;;;;;;;;24.20;99.90;;;;;;5030186;28;19925;-71
2022/08/15 01:20:14;;;;;;;;;;;24.30;99.90;;;;;;5024052;28;19932;-70
2022/08/15 01:22:47;;;;;;;;;;;24.20;99.90;;;;;;5023337;28;19926;-71
2022/08/15 01:25:18;;;;;;;;;;;24.20;99.90;;;;;;5027722;28;20431;-70
2022/08/15 01:27:50;;;;;;;;;;;24.20;99.90;;;;;;5020215;28;19944;-71
2022/08/15 01:30:19;;;;;;;;;;;24.20;99.90;;;;;;5029134;28;20019;-71
2022/08/15 01:32:46;;;;;;;;;;;24.10;99.90;;;;;;5027902;28;20446;-71
2022/08/15 01:35:14;;;;;;;;;;;24.10;99.90;;;;;;5031205;28;20434;-71
2022/08/15 01:37:42;;;;;;;;;;;24.10;99.90;;;;;;5028539;28;19925;-71
2022/08/15 01:40:15;;;;;;;;;;;24.00;99.90;;;;;;5024902;28;19929;-71
2022/08/15 01:42:45;;;;;;;;;;;24.00;99.90;;;;;;5011143;28;19925;-71
2022/08/15 01:45:18;;;;;;;;;;;24.00;99.90;;;;;;5022095;28;19960;-71
2022/08/15 01:47:49;;;;;;;;;;;23.90;99.90;;;;;;5030251;28;19924;-70
2022/08/15 01:50:17;;;;;;;;;;;23.90;99.90;;;;;;5027104;28;19968;-71
2022/08/15 01:52:47;;;;;;;;;;;23.80;99.90;;;;;;5019870;28;19925;-71
2022/08/15 01:55:15;;;;;;;;;;;23.70;99.90;;;;;;5024166;28;20456;-71
2022/08/15 01:57:45;;;;;;;;;;;23.70;99.90;;;;;;5022708;28;19929;-71
2022/08/15 02:00:12;;;;;;;;;;;23.60;99.90;;;;;;5029888;28;19932;-71
2022/08/15 02:02:40;;;;;;;;;;;23.60;99.90;;;;;;5039280;28;19947;-71
2022/08/15 02:05:07;;;;;;;;;;;23.60;99.90;;;;;;5027194;28;19925;-71
2022/08/15 02:07:34;;;;;;;;;;;23.50;99.90;;;;;;5035060;28;19925;-71
2022/08/15 02:10:02;;;;;;;;;;;23.40;99.90;;;;;;5027554;28;19932;-71
2022/08/15 02:12:34;;;;;;;;;;;23.30;99.90;;;;;;5032842;28;19929;-70
2022/08/15 02:15:06;;;;;;;;;;;23.30;99.90;;;;;;5028959;28;19925;-71
2022/08/15 02:17:36;;;;;;;;;;;23.30;99.90;;;;;;5033688;28;19932;-71
2022/08/15 02:20:04;;;;;;;;;;;23.30;99.90;;;;;;5030287;28;19925;-71
2022/08/15 02:22:31;;;;;;;;;;;23.20;99.90;;;;;;5025811;28;20020;-71
2022/08/15 02:24:59;;;;;;;;;;;23.20;99.90;;;;;;5032368;28;20392;-71
2022/08/15 02:27:28;;;;;;;;;;;23.20;99.90;;;;;;5026564;28;20031;-71
2022/08/15 02:29:54;;;;;;;;;;;23.20;99.90;;;;;;5032799;28;19929;-71
2022/08/15 02:32:23;;;;;;;;;;;23.20;99.90;;;;;;5021501;28;20012;-71
2022/08/15 02:34:52;;;;;;;;;;;23.20;99.90;;;;;;5033608;28;19925;-70
2022/08/15 02:37:21;;;;;;;;;;;23.30;99.90;;;;;;5028373;28;19925;-71
2022/08/15 02:39:49;;;;;;;;;;;23.20;99.90;;;;;;5030033;28;19967;-71
2022/08/15 02:42:16;;;;;;;;;;;23.20;99.90;;;;;;5027054;28;19933;-71
2022/08/15 02:44:44;;;;;;;;;;;23.20;99.90;;;;;;5030088;28;19924;-71
2022/08/15 02:47:14;;;;;;;;;;;23.20;99.90;;;;;;5032390;28;19925;-70
2022/08/15 02:49:43;;;;;;;;;;;23.20;99.90;;;;;;5023182;28;20336;-71
2022/08/15 02:52:12;;;;;;;;;;;23.10;99.90;;;;;;5023021;28;19932;-71
2022/08/15 02:54:39;;;;;;;;;;;23.00;99.90;;;;;;5027861;28;19976;-71
2022/08/15 02:57:09;;;;;;;;;;;23.00;99.90;;;;;;5019495;28;19925;-70
2022/08/15 02:59:39;;;;;;;;;;;23.00;99.90;;;;;;5029527;28;19972;-71
2022/08/15 03:02:12;;;;;;;;;;;22.90;99.90;;;;;;5026094;28;20016;-70
2022/08/15 03:04:39;;;;;;;;;;;22.90;99.90;;;;;;5029460;28;19925;-71
2022/08/15 03:07:10;;;;;;;;;;;23.00;99.90;;;;;;5031351;28;19932;-71
2022/08/15 03:09:37;;;;;;;;;;;23.00;99.90;;;;;;5021731;28;19925;-71
2022/08/15 03:12:09;;;;;;;;;;;23.00;99.90;;;;;;5025240;28;20020;-71
2022/08/15 03:14:38;;;;;;;;;;;23.00;99.90;;;;;;5034946;28;20038;-70
2022/08/15 03:17:08;;;;;;;;;;;23.00;99.90;;;;;;5018136;28;19976;-70
2022/08/15 03:19:39;;;;;;;;;;;23.10;99.90;;;;;;5031759;28;19975;-71
2022/08/15 03:22:06;;;;;;;;;;;23.00;99.90;;;;;;5028068;28;19929;-72
2022/08/15 03:24:39;;;;;;;;;;;23.00;99.90;;;;;;5020442;28;20019;-71
2022/08/15 03:27:06;;;;;;;;;;;23.00;99.90;;;;;;5029321;28;20031;-71
2022/08/15 03:29:34;;;;;;;;;;;22.90;99.90;;;;;;5028168;28;20376;-71
2022/08/15 03:32:01;;;;;;;;;;;22.90;99.90;;;;;;5033132;28;19924;-71
2022/08/15 03:34:29;;;;;;;;;;;23.00;99.90;;;;;;5029782;28;19925;-71
2022/08/15 03:37:01;;;;;;;;;;;22.90;99.90;;;;;;5032453;28;19925;-71
2022/08/15 03:39:28;;;;;;;;;;;23.00;99.90;;;;;;5027011;28;20319;-71
2022/08/15 03:41:58;;;;;;;;;;;23.00;99.90;;;;;;5025242;28;19925;-71
2022/08/15 03:44:26;;;;;;;;;;;22.90;99.90;;;;;;5030252;28;19928;-71
2022/08/15 03:46:54;;;;;;;;;;;22.90;99.90;;;;;;5023295;28;19929;-71
2022/08/15 03:49:21;;;;;;;;;;;22.90;99.90;;;;;;5028354;28;19926;-71
2022/08/15 03:51:47;;;;;;;;;;;22.90;99.90;;;;;;5029677;28;20019;-71
2022/08/15 03:54:14;;;;;;;;;;;22.90;99.90;;;;;;5033218;28;19925;-71
2022/08/15 03:56:43;;;;;;;;;;;22.90;99.90;;;;;;5030271;28;20015;-71
2022/08/15 03:59:14;;;;;;;;;;;22.90;99.90;;;;;;5025753;28;20411;-71
2022/08/15 04:01:42;;;;;;;;;;;22.90;99.90;;;;;;5030811;28;19995;-71
2022/08/15 04:04:09;;;;;;;;;;;22.90;99.90;;;;;;5028605;28;20022;-71
2022/08/15 04:06:41;;;;;;;;;;;22.90;99.90;;;;;;5025350;28;19925;-72
2022/08/15 04:09:08;;;;;;;;;;;22.90;99.90;;;;;;5030000;28;19968;-71
2022/08/15 04:11:37;;;;;;;;;;;22.90;99.90;;;;;;5018187;28;20396;-71
2022/08/15 04:14:09;;;;;;;;;;;22.80;99.90;;;;;;5025329;28;20308;-71
2022/08/15 04:16:38;;;;;;;;;;;22.80;99.90;;;;;;5016681;28;19948;-71
2022/08/15 04:19:05;;;;;;;;;;;22.80;99.90;;;;;;5025025;28;19933;-71
2022/08/15 04:21:33;;;;;;;;;;;22.80;99.90;;;;;;5014339;28;19965;-71
2022/08/15 04:24:00;;;;;;;;;;;22.80;99.90;;;;;;5019474;28;19925;-71
2022/08/15 04:26:27;;;;;;;;;;;22.80;99.90;;;;;;5023278;28;19929;-72
2022/08/15 04:28:53;;;;;;;;;;;22.80;99.90;;;;;;5021312;28;19932;-72
2022/08/15 04:31:21;;;;;;;;;;;22.70;99.90;;;;;;5025784;28;19929;-71
2022/08/15 04:33:50;;;;;;;;;;;22.70;99.90;;;;;;5021708;28;19932;-72
2022/08/15 04:36:21;;;;;;;;;;;22.70;99.90;;;;;;5029489;28;20008;-72
2022/08/15 04:38:53;;;;;;;;;;;22.70;99.90;;;;;;5017778;28;19925;-68
2022/08/15 04:41:20;;;;;;;;;;;22.70;99.90;;;;;;5027524;28;19925;-72
2022/08/15 04:43:48;;;;;;;;;;;22.70;99.90;;;;;;5021403;28;19925;-72
2022/08/15 04:46:19;;;;;;;;;;;22.70;99.90;;;;;;5023452;28;19925;-71
2022/08/15 04:48:46;;;;;;;;;;;22.60;99.90;;;;;;5023535;28;19928;-70
2022/08/15 04:51:14;;;;;;;;;;;22.60;99.90;;;;;;5023938;28;19932;-71
2022/08/15 04:53:44;;;;;;;;;;;22.60;99.90;;;;;;5026037;28;20401;-72
2022/08/15 04:56:14;;;;;;;;;;;22.60;99.90;;;;;;5022084;28;20580;-73
2022/08/15 04:58:41;;;;;;;;;;;22.60;99.90;;;;;;5024132;28;19925;-72
2022/08/15 05:01:15;;;;;;;;;;;22.60;99.90;;;;;;5015317;28;20308;-69
2022/08/15 05:03:48;;;;;;;;;;;22.60;99.90;;;;;;5015154;28;19929;-69
2022/08/15 05:06:18;;;;;;;;;;;22.60;99.90;;;;;;5015088;28;20028;-72
2022/08/15 05:08:44;;;;;;;;;;;22.60;99.90;;;;;;5022540;28;19925;-70
2022/08/15 05:11:14;;;;;;;;;;;22.60;99.90;;;;;;5021706;28;19924;-71
2022/08/15 05:13:43;;;;;;;;;;;22.60;99.90;;;;;;5027440;28;19959;-70
2022/08/15 05:16:16;;;;;;;;;;;22.60;99.90;;;;;;5025773;28;20527;-69
2022/08/15 05:18:45;;;;;;;;;;;22.60;99.90;;;;;;5016071;28;19929;-68
2022/08/15 05:21:12;;;;;;;;;;;22.50;99.90;;;;;;5024626;28;19926;-71
2022/08/15 05:23:43;;;;;;;;;;;22.50;99.90;;;;;;5023665;28;19925;-71
2022/08/15 05:26:24;;;;;;;;;;;22.50;99.90;;;;;;5029361;28;20400;-72
2022/08/15 05:28:51;;;;;;;;;;;22.60;99.90;;;;;;5021345;28;19971;-71
2022/08/15 05:31:18;;;;;;;;;;;22.60;99.90;;;;;;5026226;28;19983;-72
2022/08/15 05:33:47;;;;;;;;;;;22.60;99.90;;;;;;5025502;28;19929;-72
2022/08/15 05:36:16;;;;;;;;;;;22.70;99.90;;;;;;5027848;28;19925;-71
2022/08/15 05:38:47;;;;;;;;;;;22.70;99.90;;;;;;5020913;28;19931;-71
2022/08/15 05:41:22;;;;;;;;;;;22.70;99.90;;;;;;5029378;28;19929;-73
2022/08/15 05:43:53;;;;;;;;;;;22.70;99.90;;;;;;5028440;28;20028;-72
2022/08/15 05:46:22;;;;;;;;;;;22.70;99.90;;;;;;5023528;28;19932;-68
2022/08/15 05:48:54;;;;;;;;;;;22.70;99.90;;;;;;5029363;28;20406;-72
2022/08/15 05:51:26;;;;;;;;;;;22.70;99.90;;;;;;5023115;28;20023;-71
2022/08/15 05:53:59;;;;;;;;;;;22.80;99.90;;;;;;5028240;28;19925;-73
2022/08/15 05:56:31;;;;;;;;;;;22.80;99.90;;;;;;5019254;28;20041;-73
2022/08/15 05:59:02;;;;;;;;;;;22.90;99.90;;;;;;5030433;28;19935;-71
2022/08/15 06:01:33;;;;;;;;;;;22.90;99.90;;;;;;5023471;28;19939;-73
2022/08/15 06:04:05;;;;;;;;;;;23.00;99.90;;;;;;5024709;28;19929;-71
2022/08/15 06:06:35;;;;;;;;;;;23.00;99.90;;;;;;5026223;28;19925;-72
2022/08/15 06:09:22;;;;;;;;;;;23.00;99.90;;;;;;5023107;28;19932;-72
2022/08/15 06:11:53;;;;;;;;;;;23.00;99.90;;;;;;5015752;28;19925;-71
2022/08/15 06:14:24;;;;;;;;;;;22.90;99.90;;;;;;5025104;28;20127;-73
2022/08/15 06:16:53;;;;;;;;;;;22.90;99.90;;;;;;5017731;28;19940;-72
2022/08/15 06:19:25;;;;;;;;;;;23.00;99.90;;;;;;5027517;28;19936;-71
2022/08/15 06:21:55;;;;;;;;;;;22.90;99.90;;;;;;5023469;28;20020;-71
2022/08/15 06:24:26;;;;;;;;;;;22.90;99.90;;;;;;5024598;28;20467;-72
2022/08/15 06:27:00;;;;;;;;;;;22.80;99.90;;;;;;5021399;28;19932;-71
2022/08/15 06:29:47;;;;;;;;;;;22.80;99.90;;;;;;5029144;28;19925;-72
2022/08/15 06:32:18;;;;;;;;;;;22.70;99.90;;;;;;5021460;28;19925;-73
2022/08/15 06:35:00;;;;;;;;;;;22.80;99.90;;;;;;5027087;28;19929;-71
2022/08/15 06:37:31;;;;;;;;;;;22.70;99.90;;;;;;5023691;28;19925;-72
2022/08/15 06:40:09;;;;;;;;;;;22.70;99.90;;;;;;5027980;28;20404;-72
2022/08/15 06:42:39;;;;;;;;;;;22.70;99.90;;;;;;5027675;28;20037;-72
2022/08/15 06:45:10;;;;;;;;;;;22.70;99.90;;;;;;5024909;28;19925;-73
2022/08/15 06:47:37;;;;;;;;;;;22.70;99.90;;;;;;5028066;28;19932;-72
2022/08/15 06:50:08;;;;;;;;;;;22.60;99.90;;;;;;5025719;28;19925;-72
2022/08/15 06:52:35;;;;;;;;;;;22.50;99.90;;;;;;5029366;28;20396;-71
2022/08/15 06:55:04;;;;;;;;;;;22.50;99.90;;;;;;5026565;28;19956;-71
2022/08/15 06:57:39;;;;;;;;;;;22.50;99.90;;;;;;5029353;28;19929;-71
2022/08/15 07:00:09;;;;;;;;;;;22.30;99.90;;;;;;5030384;28;19925;-72
2022/08/15 07:02:55;;;;;;;;;;;22.30;99.90;;;;;;5028684;28;20292;-72
2022/08/15 07:05:25;;;;;;;;;;;22.40;99.90;;;;;;5030682;28;19925;-73
2022/08/15 07:07:55;;;;;;;;;;;22.40;99.90;;;;;;5029674;28;19925;-71
2022/08/15 07:10:25;;;;;;;;;;;22.40;99.90;;;;;;5025289;28;20021;-71
2022/08/15 07:12:58;;;;;;;;;;;22.50;99.90;;;;;;5030371;28;20392;-72
2022/08/15 07:15:29;;;;;;;;;;;22.60;99.90;;;;;;5027248;28;19925;-71
2022/08/15 07:18:00;;;;;;;;;;;22.70;99.90;;;;;;5030596;28;19926;-72
2022/08/15 07:20:31;;;;;;;;;;;22.80;99.90;;;;;;5026478;28;19979;-71
2022/08/15 07:22:59;;;;;;;;;;;22.40;99.90;;;;;;5031513;28;20027;-72
2022/08/15 07:25:32;;;;;;;;;;;22.40;99.90;;;;;;5029613;28;19964;-71
2022/08/15 07:28:01;;;;;;;;;;;22.40;99.90;;;;;;5023792;28;19929;-70
2022/08/15 07:30:39;;;;;;;;;;;22.40;99.90;;;;;;5027835;28;20392;-71
2022/08/15 07:33:06;;;;;;;;;;;22.30;99.90;;;;;;5027308;28;19924;-72
2022/08/15 07:35:34;;;;;;;;;;;22.40;99.90;;;;;;5031162;28;19931;-71
2022/08/15 07:38:06;;;;;;;;;;;22.50;99.90;;;;;;5028838;28;19932;-72
2022/08/15 07:40:37;;;;;;;;;;;22.30;99.90;;;;;;5028596;28;19964;-72
2022/08/15 07:43:06;;;;;;;;;;;22.30;99.90;;;;;;5026420;28;19925;-72
2022/08/15 07:45:36;;;;;;;;;;;22.50;99.90;;;;;;5014352;28;19926;-72
2022/08/15 07:48:21;;;;;;;;;;;22.50;99.90;;;;;;5027173;28;20312;-72
2022/08/15 07:51:03;;;;;;;;;;;22.40;99.90;;;;;;5027593;28;19994;-72
2022/08/15 07:53:31;;;;;;;;;;;22.40;99.90;;;;;;5028001;28;19933;-72
2022/08/15 07:56:12;;;;;;;;;;;22.30;99.90;;;;;;5026115;28;19932;-72
2022/08/15 07:58:41;;;;;;;;;;;22.40;99.90;;;;;;5018983;28;19925;-72
2022/08/15 08:01:11;;;;;;;;;;;22.30;99.90;;;;;;5023873;28;19925;-72
2022/08/15 08:03:39;;;;;;;;;;;22.30;99.90;;;;;;5020832;28;19932;-71
2022/08/15 08:06:09;;;;;;;;;;;22.30;99.90;;;;;;5027725;28;19964;-71
2022/08/15 08:08:42;;;;;;;;;;;22.30;99.90;;;;;;5017501;28;20192;-72
2022/08/15 08:11:16;;;;;;;;;;;22.40;99.90;;;;;;5031261;28;19924;-72
2022/08/15 08:13:47;;;;;;;;;;;22.50;99.90;;;;;;5013970;28;20515;-72
2022/08/15 08:16:20;;;;;;;;;;;22.60;99.90;;;;;;5025864;28;19960;-72
2022/08/15 08:18:51;;;;;;;;;;;22.50;99.90;;;;;;5030401;28;19924;-70
2022/08/15 08:21:19;;;;;;;;;;;22.50;99.90;;;;;;5025337;28;19925;-72
2022/08/15 08:23:55;;;;;;;;;;;22.60;99.90;;;;;;5028016;28;20385;-72
2022/08/15 08:26:30;;;;;;;;;;;22.60;99.90;;;;;;5027844;28;20019;-72
2022/08/15 08:29:01;;;;;;;;;;;22.60;99.90;;;;;;5028365;28;19925;-72
2022/08/15 08:31:34;;;;;;;;;;;22.70;99.90;;;;;;5026971;28;19931;-72
2022/08/15 08:34:05;;;;;;;;;;;22.80;99.90;;;;;;5025314;28;19932;-72
2022/08/15 08:36:34;;;;;;;;;;;22.90;99.90;;;;;;5028187;28;19940;-72
2022/08/15 08:39:06;;;;;;;;;;;23.00;99.90;;;;;;5024917;28;19929;-72
2022/08/15 08:41:39;;;;;;;;;;;23.00;99.90;;;;;;5028919;28;20362;-72
2022/08/15 08:44:11;;;;;;;;;;;23.20;99.90;;;;;;5022785;28;19925;-72
2022/08/15 08:46:52;;;;;;;;;;;23.20;99.90;;;;;;5017401;28;19936;-71
2022/08/15 08:49:23;;;;;;;;;;;23.10;99.90;;;;;;5024917;28;19929;-71
2022/08/15 08:51:57;;;;;;;;;;;23.20;99.90;;;;;;5029397;28;19933;-72
2022/08/15 08:54:28;;;;;;;;;;;23.40;99.90;;;;;;5024956;28;20008;-72
2022/08/15 08:57:00;;;;;;;;;;;23.30;99.90;;;;;;5031294;28;19924;-71
2022/08/15 08:59:31;;;;;;;;;;;23.40;99.90;;;;;;5025295;28;19928;-71
2022/08/15 09:01:59;;;;;;;;;;;23.60;99.90;;;;;;5022414;28;19925;-72
2022/08/15 09:04:30;;;;;;;;;;;23.90;99.90;;;;;;5026610;28;19987;-72
2022/08/15 09:06:57;;;;;;;;;;;23.80;99.90;;;;;;5030642;28;19924;-72
2022/08/15 09:09:27;;;;;;;;;;;23.70;99.90;;;;;;5026495;28;19926;-72
2022/08/15 09:11:57;;;;;;;;;;;23.70;99.90;;;;;;5027506;28;19925;-72
2022/08/15 09:14:27;;;;;;;;;;;23.80;99.90;;;;;;5026966;28;19940;-72
2022/08/15 09:16:55;;;;;;;;;;;23.90;99.90;;;;;;5027385;28;19920;-72
2022/08/15 09:19:25;;;;;;;;;;;23.70;99.90;;;;;;5026666;28;20397;-72
2022/08/15 09:21:52;;;;;;;;;;;23.70;99.90;;;;;;5021469;28;20370;-72
2022/08/15 09:24:20;;;;;;;;;;;23.70;99.90;;;;;;5027816;28;19932;-72
2022/08/15 09:26:52;;;;;;;;;;;23.60;99.90;;;;;;5027853;28;19925;-72
2022/08/15 09:29:23;;;;;;;;;;;23.60;99.90;;;;;;5029809;28;19925;-72
2022/08/15 09:32:02;;;;;;;;;;;23.80;99.90;;;;;;5024234;28;19925;-72
2022/08/15 09:34:36;;;;;;;;;;;23.80;99.90;;;;;;5030520;28;19925;-72
2022/08/15 09:37:21;;;;;;;;;;;23.80;99.90;;;;;;5024312;28;19933;-73
2022/08/15 09:40:00;;;;;;;;;;;24.00;99.90;;;;;;5019511;28;19962;-73
2022/08/15 09:42:39;;;;;;;;;;;24.00;99.90;;;;;;5024920;28;20359;-71
2022/08/15 09:45:14;;;;;;;;;;;24.10;99.90;;;;;;5021903;28;19932;-72
2022/08/15 09:48:05;;;;;;;;;;;24.20;99.90;;;;;;5011979;28;19925;-72
2022/08/15 09:50:40;;;;;;;;;;;24.10;99.90;;;;;;5004135;28;20462;-73
2022/08/15 09:53:10;;;;;;;;;;;24.10;99.90;;;;;;5029164;28;19926;-72
2022/08/15 09:55:44;;;;;;;;;;;24.30;99.90;;;;;;5022853;28;19925;-72
2022/08/15 09:58:14;;;;;;;;;;;24.30;99.90;;;;;;5027544;28;19932;-72
2022/08/15 10:00:52;;;;;;;;;;;24.20;99.90;;;;;;5015936;28;19933;-72
2022/08/15 10:03:21;;;;;;;;;;;24.20;99.90;;;;;;5025484;28;19932;-72
2022/08/15 10:06:00;;;;;;;;;;;24.20;99.90;;;;;;5025255;28;20381;-71
2022/08/15 10:08:48;;;;;;;;;;;24.30;99.90;;;;;;5027443;28;19929;-72
2022/08/15 10:11:16;;;;;;;;;;;24.20;99.90;;;;;;5028793;28;20353;-72
2022/08/15 10:13:46;;;;;;;;;;;24.00;99.90;;;;;;5025257;28;20440;-72
2022/08/15 10:16:42;;;;;;;;;;;24.20;99.90;;;;;;5024270;28;19958;-73
2022/08/15 10:19:11;;;;;;;;;;;24.10;99.90;;;;;;5030216;28;20385;-72
2022/08/15 10:21:40;;;;;;;;;;;24.10;99.90;;;;;;5019162;28;19932;-71
2022/08/15 10:24:08;;;;;;;;;;;24.00;99.90;;;;;;5032860;28;19924;-72
2022/08/15 10:26:37;;;;;;;;;;;23.90;99.90;;;;;;5031264;28;19939;-72
2022/08/15 10:29:24;;;;;;;;;;;23.90;99.90;;;;;;5030839;28;19929;-73
2022/08/15 10:31:53;;;;;;;;;;;23.80;99.90;;;;;;5027340;28;19991;-72
2022/08/15 10:34:35;;;;;;;;;;;23.80;99.90;;;;;;5032587;28;19970;-72
2022/08/15 10:37:10;;;;;;;;;;;23.90;99.90;;;;;;5027295;28;20282;-71
2022/08/15 10:39:39;;;;;;;;;;;24.00;99.90;;;;;;5031150;28;19925;-72
2022/08/15 10:42:14;;;;;;;;;;;24.00;99.90;;;;;;5028453;28;19987;-72
2022/08/15 10:44:46;;;;;;;;;;;23.90;99.90;;;;;;5028443;28;20281;-72
2022/08/15 10:47:19;;;;;;;;;;;23.80;99.90;;;;;;5025765;28;19925;-71
2022/08/15 10:49:53;;;;;;;;;;;23.60;99.90;;;;;;5025555;28;19925;-72
2022/08/15 10:52:31;;;;;;;;;;;23.50;99.90;;;;;;5030551;28;19983;-72
2022/08/15 10:55:04;;;;;;;;;;;23.50;99.90;;;;;;5029825;28;19925;-71
2022/08/15 10:57:38;;;;;;;;;;;23.50;99.90;;;;;;5030815;28;19929;-69
2022/08/15 11:00:06;;;;;;;;;;;23.50;99.90;;;;;;5023356;28;19932;-72
2022/08/15 11:02:41;;;;;;;;;;;23.40;99.90;;;;;;5031890;28;19925;-72
2022/08/15 11:05:09;;;;;;;;;;;23.40;99.90;;;;;;5029232;28;19925;-72
2022/08/15 11:07:37;;;;;;;;;;;23.30;99.90;;;;;;5028509;28;19931;-72
2022/08/15 11:10:09;;;;;;;;;;;23.40;99.90;;;;;;5029642;28;19933;-73
2022/08/15 11:12:41;;;;;;;;;;;23.40;99.90;;;;;;5026925;28;19929;-72
2022/08/15 11:15:14;;;;;;;;;;;23.30;99.90;;;;;;5027543;28;19925;-72
2022/08/15 11:17:44;;;;;;;;;;;23.40;99.90;;;;;;5039051;23;19932;-70
2022/08/15 11:20:15;;;;;;;;;;;23.50;99.90;;;;;;5020311;28;20392;-69
2022/08/15 11:22:49;;;;;;;;;;;23.40;99.90;;;;;;5028190;28;20401;-69
2022/08/15 11:25:19;;;;;;;;;;;23.50;99.90;;;;;;5026386;28;19924;-69
2022/08/15 11:28:00;;;;;;;;;;;23.50;99.90;;;;;;5021520;28;19931;-69
2022/08/15 11:30:31;;;;;;;;;;;23.60;99.90;;;;;;5024118;28;19932;-69
2022/08/15 11:33:13;;;;;;;;;;;23.90;99.90;;;;;;5019983;28;19925;-69
2022/08/15 11:35:40;;;;;;;;;;;23.80;99.90;;;;;;5060625;28;19933;-69
2022/08/15 11:38:06;;;;;;;;;;;23.80;99.90;;;;;;5028039;28;19975;-69
2022/08/15 11:40:35;;;;;;;;;;;23.90;99.90;;;;;;5026583;28;19925;-69
2022/08/15 11:43:04;;;;;;;;;;;24.20;99.90;;;;;;5019837;28;20035;-69
2022/08/15 11:45:34;;;;;;;;;;;24.50;99.90;;;;;;5026292;28;19925;-69
2022/08/15 11:48:01;;;;;;;;;;;24.40;99.90;;;;;;5028242;28;19924;-69
2022/08/15 11:50:29;;;;;;;;;;;24.50;99.90;;;;;;5020172;28;20330;-69
2022/08/15 11:52:57;;;;;;;;;;;24.90;99.90;;;;;;5021731;28;19929;-69
2022/08/15 11:55:41;;;;;;;;;;;25.10;99.90;;;;;;5030790;28;19928;-69
2022/08/15 11:58:21;;;;;;;;;;;25.40;99.90;;;;;;5026944;28;20284;-69
2022/08/15 12:00:49;;;;;;;;;;;25.70;99.90;;;;;;5045002;28;19924;-70
2022/08/15 12:03:24;;;;;;;;;;;26.10;99.90;;;;;;5056487;28;19925;-70
2022/08/15 12:05:52;;;;;;;;;;;26.20;99.90;;;;;;5048648;28;19936;-70
2022/08/15 12:08:23;;;;;;;;;;;26.50;99.90;;;;;;5024461;28;19933;-70
2022/08/15 12:10:50;;;;;;;;;;;26.90;99.90;;;;;;5032111;28;19931;-70
2022/08/15 12:13:23;;;;;;;;;;;27.20;99.90;;;;;;5024580;28;19968;-69
2022/08/15 12:15:50;;;;;;;;;;;27.40;99.90;;;;;;5023586;28;20434;-70
2022/08/15 12:18:32;;;;;;;;;;;27.90;99.90;;;;;;5019157;28;19932;-70
2022/08/15 12:21:11;;;;;;;;;;;27.90;99.90;;;;;;5032918;28;19924;-70
2022/08/15 12:23:44;;;;;;;;;;;28.10;99.90;;;;;;5051270;28;19933;-70
2022/08/15 12:26:11;;;;;;;;;;;28.70;99.90;;;;;;5023466;28;19929;-70
2022/08/15 12:28:40;;;;;;;;;;;29.10;99.90;;;;;;5026043;28;19925;-70
2022/08/15 12:31:12;;;;;;;;;;;29.30;99.90;;;;;;5032543;28;19933;-70
2022/08/15 12:33:39;;;;;;;;;;;29.30;99.90;;;;;;5045110;28;19929;-69
2022/08/15 12:36:06;;;;;;;;;;;29.50;99.90;;;;;;5021166;28;19932;-70
2022/08/15 12:38:35;;;;;;;;;;;29.20;99.90;;;;;;5022561;28;19929;-70
2022/08/15 12:41:02;;;;;;;;;;;29.30;99.90;;;;;;5028548;28;19932;-70
2022/08/15 12:43:29;;;;;;;;;;;29.10;99.90;;;;;;5016459;28;19932;-70
2022/08/15 12:45:57;;;;;;;;;;;29.50;99.90;;;;;;5022360;28;20000;-70
2022/08/15 12:48:25;;;;;;;;;;;29.30;99.90;;;;;;5028641;28;19968;-70
2022/08/15 12:50:52;;;;;;;;;;;29.10;99.90;;;;;;5026383;28;20022;-70
2022/08/15 12:53:19;;;;;;;;;;;29.70;99.90;;;;;;5018212;28;20016;-70
2022/08/15 12:55:47;;;;;;;;;;;31.70;99.90;;;;;;5021107;28;20036;-70
2022/08/15 12:58:14;;;;;;;;;;;32.10;99.90;;;;;;5029991;28;19931;-70
2022/08/15 13:00:41;;;;;;;;;;;33.10;99.90;;;;;;5028149;28;20297;-70
2022/08/15 13:03:16;;;;;;;;;;;33.70;99.90;;;;;;5029720;28;19925;-70
2022/08/15 13:05:44;;;;;;;;;;;34.10;99.90;;;;;;5022969;28;20388;-71
2022/08/15 13:08:12;;;;;;;;;;;34.50;99.90;;;;;;5050992;28;19929;-70
2022/08/15 13:10:39;;;;;;;;;;;32.40;99.90;;;;;;5020819;28;19925;-70
2022/08/15 13:13:05;;;;;;;;;;;31.70;99.90;;;;;;5016687;28;19925;-70
2022/08/15 13:15:32;;;;;;;;;;;31.00;99.90;;;;;;5021169;28;19924;-70
2022/08/15 13:18:00;;;;;;;;;;;30.60;99.90;;;;;;5019772;28;19925;-70
2022/08/15 13:25:57;;;;;;;;;;;29.00;99.90;;;;;;5023232;28;19928;-70
2022/08/15 13:28:24;;;;;;;;;;;28.40;99.90;;;;;;5022096;28;20324;-69
2022/08/15 13:30:51;;;;;;;;;;;28.00;99.90;;;;;;5017747;28;19925;-70
2022/08/15 13:33:18;;;;;;;;;;;27.60;99.90;;;;;;5024285;28;19956;-70
2022/08/15 13:35:46;;;;;;;;;;;27.30;99.90;;;;;;5021022;28;19925;-70
2022/08/15 13:38:14;;;;;;;;;;;27.00;99.90;;;;;;5048681;28;19928;-70
2022/08/15 13:40:40;;;;;;;;;;;26.70;99.90;;;;;;5024712;28;20443;-70
2022/08/15 13:43:07;;;;;;;;;;;26.70;99.90;;;;;;5031526;28;20293;-70
2022/08/15 13:45:38;;;;;;;;;;;26.60;99.90;;;;;;5028920;28;19925;-70
2022/08/15 13:48:07;;;;;;;;;;;26.80;99.90;;;;;;5019247;28;19931;-69
2022/08/15 13:50:35;;;;;;;;;;;26.60;99.90;;;;;;5031753;28;20316;-70
2022/08/15 13:53:03;;;;;;;;;;;26.40;99.90;;;;;;5025425;28;19929;-70
2022/08/15 13:55:30;;;;;;;;;;;26.40;99.90;;;;;;5024472;28;19925;-70
2022/08/15 13:57:57;;;;;;;;;;;26.50;99.90;;;;;;5019268;28;19926;-69
2022/08/15 14:00:24;;;;;;;;;;;26.50;99.90;;;;;;5024718;28;19971;-69
2022/08/15 14:02:51;;;;;;;;;;;26.70;99.90;;;;;;5029725;28;19932;-69
2022/08/15 14:05:17;;;;;;;;;;;26.60;99.90;;;;;;5024389;28;19924;-70
2022/08/15 14:07:45;;;;;;;;;;;26.80;99.90;;;;;;5020405;28;19925;-70
2022/08/15 14:10:14;;;;;;;;;;;26.90;99.90;;;;;;5024769;28;19924;-69
2022/08/15 14:12:43;;;;;;;;;;;27.00;99.90;;;;;;5052687;28;19928;-70
2022/08/15 14:15:13;;;;;;;;;;;27.10;99.90;;;;;;5027671;28;19968;-70
2022/08/15 14:17:41;;;;;;;;;;;27.20;99.90;;;;;;5034157;28;19960;-70
2022/08/15 14:20:09;;;;;;;;;;;26.80;99.90;;;;;;5033281;28;19925;-70
2022/08/15 14:22:36;;;;;;;;;;;26.80;99.90;;;;;;5033190;28;19933;-70
2022/08/15 14:25:03;;;;;;;;;;;26.60;99.90;;;;;;5033618;28;19956;-70
2022/08/15 14:27:31;;;;;;;;;;;26.60;99.90;;;;;;5032962;28;19925;-70
2022/08/15 14:29:59;;;;;;;;;;;26.90;99.90;;;;;;5026761;28;19925;-69
2022/08/15 14:32:25;;;;;;;;;;;26.90;99.90;;;;;;5027518;28;20047;-69
2022/08/15 14:34:52;;;;;;;;;;;26.90;99.90;;;;;;5029288;28;19929;-69
2022/08/15 14:37:20;;;;;;;;;;;27.00;99.90;;;;;;5030643;28;19928;-70
2022/08/15 14:39:47;;;;;;;;;;;27.10;99.90;;;;;;5034502;28;19924;-70